createdAt,value
2018-09-26T00:00:39.856Z,5.47
2018-09-26T00:03:14.520Z,6.60
2018-09-26T00:05:43.664Z,7.00
2018-09-26T00:08:12.806Z,6.03
2018-09-26T00:10:42.231Z,5.23
2018-09-26T00:13:11.357Z,6.77
2018-09-26T00:15:40.487Z,5.10
2018-09-26T00:18:10.218Z,7.63
2018-09-26T00:20:41.101Z,5.25
2018-09-26T00:23:10.209Z,5.70
2018-09-26T00:25:39.629Z,5.57
2018-09-26T00:28:09.470Z,5.17
2018-09-26T00:30:38.662Z,10.53
2018-09-26T00:33:08.292Z,4.83
2018-09-26T00:35:37.408Z,5.70
2018-09-26T00:38:06.626Z,9.80
2018-09-26T00:40:36.092Z,5.55
2018-09-26T00:43:05.226Z,5.30
2018-09-26T00:45:34.584Z,5.13
2018-09-26T00:48:04.077Z,6.63
2018-09-26T00:50:33.225Z,5.53
2018-09-26T00:53:02.374Z,7.40
2018-09-26T00:55:31.796Z,6.97
2018-09-26T00:58:00.961Z,5.93
2018-09-26T01:00:30.131Z,6.90
2018-09-26T01:02:59.595Z,6.57
2018-09-26T01:05:28.704Z,7.10
2018-09-26T01:07:57.819Z,5.92
2018-09-26T01:10:27.269Z,5.67
2018-09-26T01:12:56.693Z,9.90
2018-09-26T01:15:25.836Z,7.53
2018-09-26T01:17:56.016Z,5.50
2018-09-26T01:20:25.148Z,6.20
2018-09-26T01:22:54.437Z,5.90
2018-09-26T01:25:23.611Z,6.65
2018-09-26T01:27:52.868Z,13.08
2018-09-26T01:30:22.442Z,7.13
2018-09-26T01:32:51.573Z,6.77
2018-09-26T01:35:20.743Z,7.17
2018-09-26T01:37:49.873Z,6.62
2018-09-26T01:40:19.052Z,11.60
2018-09-26T01:42:48.204Z,7.45
2018-09-26T01:45:17.335Z,6.60
2018-09-26T01:47:46.790Z,6.65
2018-09-26T01:50:15.911Z,6.40
2018-09-26T01:52:45.069Z,6.78
2018-09-26T01:55:14.438Z,10.50
2018-09-26T01:57:43.594Z,8.17
2018-09-26T02:00:12.857Z,7.17
2018-09-26T02:02:42.041Z,8.35
2018-09-26T02:05:11.282Z,8.63
2018-09-26T02:07:40.479Z,7.53
2018-09-26T02:10:09.942Z,7.08
2018-09-26T02:12:39.071Z,9.70
2018-09-26T02:15:08.868Z,6.60
2018-09-26T02:17:38.069Z,7.22
2018-09-26T02:20:07.412Z,7.08
2018-09-26T02:22:36.831Z,7.35
2018-09-26T02:25:06.188Z,9.28
2018-09-26T02:27:36.717Z,9.90
2018-09-26T02:30:05.903Z,8.18
2018-09-26T02:32:35.086Z,8.93
2018-09-26T02:35:04.258Z,7.87
2018-09-26T02:37:34.001Z,8.03
2018-09-26T02:40:03.153Z,8.23
2018-09-26T02:42:32.301Z,7.37
2018-09-26T02:45:01.427Z,6.70
2018-09-26T02:47:30.598Z,8.08
2018-09-26T02:49:59.739Z,7.00
2018-09-26T02:52:28.885Z,7.33
2018-09-26T02:54:58.070Z,14.60
2018-09-26T02:57:27.208Z,7.08
2018-09-26T02:59:56.344Z,8.65
2018-09-26T03:02:25.504Z,10.82
2018-09-26T03:04:55.095Z,9.08
2018-09-26T03:07:24.213Z,7.62
2018-09-26T03:09:53.368Z,8.33
2018-09-26T03:12:22.600Z,9.80
2018-09-26T03:14:52.005Z,7.10
2018-09-26T03:17:21.265Z,7.25
2018-09-26T03:19:50.425Z,7.50
2018-09-26T03:22:19.598Z,11.18
2018-09-26T03:24:48.735Z,10.95
2018-09-26T03:27:17.908Z,7.00
2018-09-26T03:29:47.349Z,7.95
2018-09-26T03:32:16.501Z,7.60
2018-09-26T03:34:45.648Z,7.60
2018-09-26T03:37:14.873Z,11.53
2018-09-26T03:39:44.007Z,7.50
2018-09-26T03:42:13.176Z,8.05
2018-09-26T03:44:42.293Z,9.20
2018-09-26T03:47:11.589Z,8.23
2018-09-26T03:49:40.718Z,8.83
2018-09-26T03:52:10.186Z,7.72
2018-09-26T03:54:39.462Z,10.32
2018-09-26T03:57:08.770Z,13.85
2018-09-26T03:59:37.944Z,7.55
2018-09-26T04:02:07.138Z,7.95
2018-09-26T04:04:36.425Z,14.30
2018-09-26T04:07:05.888Z,8.10
2018-09-26T04:09:35.086Z,8.08
2018-09-26T04:12:04.855Z,8.23
2018-09-26T04:14:33.961Z,8.08
2018-09-26T04:17:03.156Z,7.72
2018-09-26T04:19:32.298Z,7.78
2018-09-26T04:22:01.441Z,7.37
2018-09-26T04:24:30.637Z,13.28
2018-09-26T04:26:59.982Z,30.08
2018-09-26T04:29:29.078Z,49.55
2018-09-26T04:31:59.301Z,58.68
2018-09-26T04:34:28.425Z,66.30
2018-09-26T04:36:57.580Z,69.03
2018-09-26T04:39:26.998Z,54.50
2018-09-26T04:41:56.188Z,39.08
2018-09-26T04:44:25.361Z,34.13
2018-09-26T04:46:54.721Z,25.20
2018-09-26T04:49:23.842Z,20.60
2018-09-26T04:51:53.012Z,12.95
2018-09-26T04:54:22.490Z,11.68
2018-09-26T04:56:51.981Z,18.32
2018-09-26T04:59:21.138Z,13.30
2018-09-26T05:01:50.590Z,9.18
2018-09-26T05:04:19.863Z,15.50
2018-09-26T05:06:49.243Z,10.32
2018-09-26T05:09:18.703Z,12.90
2018-09-26T05:11:48.168Z,11.40
2018-09-26T05:14:17.335Z,10.68
2018-09-26T05:16:46.722Z,16.37
2018-09-26T05:19:15.854Z,13.18
2018-09-26T05:21:45.017Z,20.27
2018-09-26T05:24:14.517Z,10.45
2018-09-26T05:26:43.667Z,13.38
2018-09-26T05:29:12.839Z,8.40
2018-09-26T05:31:42.338Z,18.70
2018-09-26T05:34:11.473Z,8.80
2018-09-26T05:36:40.605Z,12.68
2018-09-26T05:39:11.650Z,9.95
2018-09-26T05:41:40.816Z,18.77
2018-09-26T05:44:09.964Z,13.15
2018-09-26T05:46:39.537Z,13.18
2018-09-26T05:49:09.077Z,20.02
2018-09-26T05:51:38.207Z,10.43
2018-09-26T05:54:07.750Z,7.45
2018-09-26T05:56:36.907Z,10.85
2018-09-26T05:59:06.202Z,7.62
2018-09-26T06:01:35.613Z,13.55
2018-09-26T06:04:05.126Z,16.45
2018-09-26T06:06:34.294Z,20.17
2018-09-26T06:09:04.024Z,13.50
2018-09-26T06:11:33.216Z,8.63
2018-09-26T06:14:03.018Z,15.47
2018-09-26T06:16:32.528Z,15.97
2018-09-26T06:19:01.775Z,7.90
2018-09-26T06:21:30.881Z,6.53
2018-09-26T06:24:00.653Z,6.70
2018-09-26T06:26:29.819Z,6.73
2018-09-26T06:28:59.028Z,7.70
2018-09-26T06:31:28.462Z,10.73
2018-09-26T06:33:57.615Z,10.83
2018-09-26T06:36:27.025Z,15.03
2018-09-26T06:38:56.701Z,7.70
2018-09-26T06:41:25.843Z,8.43
2018-09-26T06:43:54.999Z,5.50
2018-09-26T06:46:24.478Z,5.63
2018-09-26T06:48:53.679Z,8.00
2018-09-26T06:51:22.839Z,14.73
2018-09-26T06:53:52.311Z,10.33
2018-09-26T06:56:21.450Z,7.03
2018-09-26T06:58:50.613Z,6.10
2018-09-26T07:01:20.037Z,13.03
2018-09-26T07:03:49.180Z,7.23
2018-09-26T07:06:18.352Z,10.00
2018-09-26T07:08:48.216Z,9.10
2018-09-26T07:11:17.697Z,5.77
2018-09-26T07:13:46.905Z,5.83
2018-09-26T07:16:16.072Z,14.60
2018-09-26T07:18:45.238Z,7.07
2018-09-26T07:21:14.406Z,5.00
2018-09-26T07:23:43.634Z,4.60
2018-09-26T07:26:12.786Z,5.23
2018-09-26T07:28:41.922Z,6.97
2018-09-26T07:31:11.101Z,5.30
2018-09-26T07:33:40.333Z,6.37
2018-09-26T07:36:09.488Z,4.10
2018-09-26T07:38:39.000Z,4.33
2018-09-26T07:41:08.574Z,4.93
2018-09-26T07:43:37.692Z,14.70
2018-09-26T07:46:07.401Z,3.13
2018-09-26T07:48:36.663Z,6.80
2018-09-26T07:51:06.136Z,4.07
2018-09-26T07:53:35.570Z,3.73
2018-09-26T07:56:04.949Z,6.00
2018-09-26T07:58:34.107Z,9.20
2018-09-26T08:01:03.643Z,4.80
2018-09-26T08:03:32.809Z,3.13
2018-09-26T08:06:02.029Z,6.27
2018-09-26T08:08:32.342Z,7.90
2018-09-26T08:11:02.557Z,9.40
2018-09-26T08:13:31.777Z,2.93
2018-09-26T08:16:02.156Z,6.80
2018-09-26T08:18:31.997Z,6.83
2018-09-26T08:21:01.141Z,11.20
2018-09-26T08:23:30.903Z,5.73
2018-09-26T08:26:00.415Z,2.37
2018-09-26T08:28:29.598Z,2.40
2018-09-26T08:30:58.955Z,6.20
2018-09-26T08:33:28.165Z,12.03
2018-09-26T08:35:57.965Z,2.80
2018-09-26T08:38:27.225Z,2.50
2018-09-26T08:40:56.452Z,8.07
2018-09-26T08:43:25.777Z,4.33
2018-09-26T08:45:55.150Z,2.27
2018-09-26T08:48:24.296Z,3.80
2018-09-26T08:50:53.441Z,2.60
2018-09-26T08:53:24.282Z,2.60
2018-09-26T08:55:53.428Z,2.83
2018-09-26T08:58:22.602Z,2.53
2018-09-26T09:00:54.053Z,4.70
2018-09-26T09:03:23.241Z,1.90
2018-09-26T09:05:52.885Z,4.23
2018-09-26T09:08:22.050Z,5.27
2018-09-26T09:10:51.504Z,3.70
2018-09-26T09:13:20.705Z,5.20
2018-09-26T09:15:49.861Z,6.50
2018-09-26T09:18:19.058Z,2.03
2018-09-26T09:20:48.269Z,2.33
2018-09-26T09:23:17.831Z,2.90
2018-09-26T09:25:46.959Z,1.97
2018-09-26T09:28:16.436Z,2.23
2018-09-26T09:30:45.676Z,13.00
2018-09-26T09:33:15.184Z,1.80
2018-09-26T09:35:44.400Z,2.93
2018-09-26T09:38:13.726Z,2.40
2018-09-26T09:40:42.860Z,13.70
2018-09-26T09:43:12.474Z,2.00
2018-09-26T09:45:41.788Z,1.60
2018-09-26T09:48:11.487Z,3.80
2018-09-26T09:50:40.699Z,1.73
2018-09-26T09:53:10.702Z,2.70
2018-09-26T09:55:40.102Z,6.00
2018-09-26T09:58:09.305Z,1.97
2018-09-26T10:00:43.766Z,5.57
2018-09-26T10:03:12.997Z,1.93
2018-09-26T10:05:42.136Z,4.30
2018-09-26T10:08:11.323Z,2.23
2018-09-26T10:10:41.006Z,1.70
2018-09-26T10:13:10.126Z,1.80
2018-09-26T10:15:39.635Z,2.20
2018-09-26T10:18:09.201Z,2.40
2018-09-26T10:20:38.391Z,6.00
2018-09-26T10:23:07.751Z,2.50
2018-09-26T10:25:37.078Z,4.43
2018-09-26T10:28:06.669Z,2.27
2018-09-26T10:30:35.879Z,1.97
2018-09-26T10:33:05.082Z,2.40
2018-09-26T10:35:34.320Z,4.50
2018-09-26T10:38:03.532Z,4.50
2018-09-26T10:40:32.702Z,3.53
2018-09-26T10:43:01.960Z,2.13
2018-09-26T10:45:31.385Z,4.77
2018-09-26T10:48:00.890Z,2.83
2018-09-26T10:50:30.043Z,3.20
2018-09-26T10:52:59.254Z,2.87
2018-09-26T10:55:28.494Z,2.60
2018-09-26T10:57:57.820Z,1.73
2018-09-26T11:00:27.130Z,2.00
2018-09-26T11:02:56.384Z,1.93
2018-09-26T11:05:25.601Z,2.00
2018-09-26T11:07:54.789Z,2.00
2018-09-26T11:10:24.055Z,2.63
2018-09-26T11:12:53.146Z,17.23
2018-09-26T11:15:23.309Z,2.07
2018-09-26T11:17:53.050Z,1.70
2018-09-26T11:20:22.652Z,3.53
2018-09-26T11:22:52.297Z,1.77
2018-09-26T11:25:21.412Z,1.73
2018-09-26T11:27:50.580Z,1.37
2018-09-26T11:30:19.818Z,1.77
2018-09-26T11:32:49.027Z,1.60
2018-09-26T11:35:18.262Z,1.73
2018-09-26T11:37:47.461Z,2.83
2018-09-26T11:40:16.904Z,3.17
2018-09-26T11:42:47.003Z,4.50
2018-09-26T11:45:16.243Z,3.23
2018-09-26T11:47:45.619Z,1.40
2018-09-26T11:50:15.353Z,2.67
2018-09-26T11:52:44.704Z,3.43
2018-09-26T11:55:14.097Z,1.70
2018-09-26T11:57:43.543Z,2.97
2018-09-26T12:00:12.688Z,2.20
2018-09-26T12:02:42.014Z,3.70
2018-09-26T12:05:11.201Z,1.10
2018-09-26T12:07:40.433Z,2.80
2018-09-26T12:10:09.665Z,2.20
2018-09-26T12:12:38.813Z,1.77
2018-09-26T12:15:08.266Z,1.43
2018-09-26T12:17:37.410Z,6.00
2018-09-26T12:20:07.019Z,1.60
2018-09-26T12:22:37.761Z,4.73
2018-09-26T12:25:07.729Z,3.00
2018-09-26T12:27:37.102Z,1.63
2018-09-26T12:30:07.955Z,1.53
2018-09-26T12:32:37.503Z,1.77
2018-09-26T12:35:06.845Z,2.03
2018-09-26T12:37:36.024Z,1.47
2018-09-26T12:40:06.921Z,1.40
2018-09-26T12:42:38.145Z,5.00
2018-09-26T12:45:07.634Z,1.70
2018-09-26T12:47:36.851Z,1.77
2018-09-26T12:50:06.823Z,1.43
2018-09-26T12:52:36.001Z,3.27
2018-09-26T12:55:05.348Z,1.50
2018-09-26T12:57:34.614Z,7.30
2018-09-26T13:00:04.010Z,1.93
2018-09-26T13:02:33.334Z,1.40
2018-09-26T13:05:02.527Z,2.73
2018-09-26T13:07:31.763Z,3.27
2018-09-26T13:10:01.018Z,6.13
2018-09-26T13:12:30.261Z,4.60
2018-09-26T13:14:59.575Z,3.10
2018-09-26T13:17:28.832Z,2.10
2018-09-26T13:19:58.253Z,3.00
2018-09-26T13:22:27.506Z,9.03
2018-09-26T13:24:56.716Z,2.13
2018-09-26T13:27:25.977Z,1.60
2018-09-26T13:29:55.229Z,1.30
2018-09-26T13:32:25.584Z,3.83
2018-09-26T13:34:54.658Z,1.83
2018-09-26T13:37:25.205Z,4.60
2018-09-26T13:39:54.347Z,3.00
2018-09-26T13:42:24.083Z,1.50
2018-09-26T13:44:53.494Z,2.93
2018-09-26T13:47:22.678Z,1.40
2018-09-26T13:49:52.535Z,1.47
2018-09-26T13:52:21.733Z,2.50
2018-09-26T13:54:51.027Z,3.13
2018-09-26T13:57:20.203Z,1.30
2018-09-26T13:59:49.407Z,1.10
2018-09-26T14:02:18.584Z,1.90
2018-09-26T14:04:47.727Z,3.43
2018-09-26T14:07:16.891Z,2.60
2018-09-26T14:09:46.055Z,1.27
2018-09-26T14:12:15.318Z,2.90
2018-09-26T14:14:44.682Z,1.70
2018-09-26T14:17:13.995Z,3.50
2018-09-26T14:19:43.137Z,5.90
2018-09-26T14:22:12.401Z,4.43
2018-09-26T14:24:41.464Z,1.30
2018-09-26T14:27:10.640Z,4.43
2018-09-26T14:29:39.815Z,2.03
2018-09-26T14:32:09.233Z,1.30
2018-09-26T14:34:38.768Z,1.33
2018-09-26T14:37:08.398Z,2.03
2018-09-26T14:39:37.812Z,1.43
2018-09-26T14:42:06.855Z,3.07
2018-09-26T14:44:36.173Z,1.30
2018-09-26T14:47:05.556Z,1.73
2018-09-26T14:49:34.880Z,4.40
2018-09-26T14:52:04.116Z,2.30
2018-09-26T14:54:33.273Z,2.90
2018-09-26T14:57:02.536Z,1.90
2018-09-26T14:59:31.747Z,1.70
2018-09-26T15:02:00.967Z,3.10
2018-09-26T15:04:30.241Z,8.00
2018-09-26T15:06:59.454Z,3.60
2018-09-26T15:09:28.635Z,1.97
2018-09-26T15:11:57.840Z,2.13
2018-09-26T15:14:27.035Z,1.40
2018-09-26T15:16:56.977Z,1.93
2018-09-26T15:19:26.257Z,1.50
2018-09-26T15:21:55.429Z,3.27
2018-09-26T15:24:24.912Z,5.27
2018-09-26T15:26:54.082Z,1.50
2018-09-26T15:29:23.270Z,4.10
2018-09-26T15:31:52.446Z,2.07
2018-09-26T15:34:21.752Z,1.10
2018-09-26T15:36:50.974Z,2.03
2018-09-26T15:39:20.453Z,1.83
2018-09-26T15:41:49.977Z,2.80
2018-09-26T15:44:19.838Z,1.87
2018-09-26T15:46:49.496Z,3.00
2018-09-26T15:49:18.736Z,1.90
2018-09-26T15:51:48.013Z,1.50
2018-09-26T15:54:18.442Z,2.40
2018-09-26T15:56:47.644Z,3.03
2018-09-26T15:59:16.833Z,3.70
2018-09-26T16:01:46.009Z,6.93
2018-09-26T16:04:15.440Z,1.20
2018-09-26T16:06:44.630Z,2.07
2018-09-26T16:09:14.585Z,6.60
2018-09-26T16:11:43.725Z,1.80
2018-09-26T16:14:13.112Z,1.63
2018-09-26T16:16:42.231Z,1.50
2018-09-26T16:19:11.856Z,4.13
2018-09-26T16:21:40.944Z,1.67
2018-09-26T16:24:10.150Z,4.00
2018-09-26T16:26:39.345Z,6.00
2018-09-26T16:29:08.884Z,2.83
2018-09-26T16:31:38.125Z,6.93
2018-09-26T16:34:07.391Z,1.87
2018-09-26T16:36:36.749Z,5.30
2018-09-26T16:39:09.282Z,1.80
2018-09-26T16:41:38.964Z,2.40
2018-09-26T16:44:08.168Z,2.50
2018-09-26T16:46:37.448Z,4.70
2018-09-26T16:49:07.052Z,4.73
2018-09-26T16:51:36.202Z,2.80
2018-09-26T16:54:05.993Z,15.53
2018-09-26T16:56:35.118Z,2.20
2018-09-26T16:59:04.368Z,4.63
2018-09-26T17:01:33.509Z,5.40
2018-09-26T17:04:02.639Z,4.33
2018-09-26T17:06:31.811Z,10.67
2018-09-26T17:09:01.012Z,10.77
2018-09-26T17:11:30.995Z,8.13
2018-09-26T17:14:00.126Z,7.70
2018-09-26T17:16:29.518Z,10.30
2018-09-26T17:18:59.150Z,11.07
2018-09-26T17:21:28.861Z,7.80
2018-09-26T17:23:58.019Z,10.93
2018-09-26T17:26:27.521Z,2.80
2018-09-26T17:28:56.595Z,5.83
2018-09-26T17:31:26.341Z,2.93
2018-09-26T17:33:55.693Z,4.07
2018-09-26T17:36:25.913Z,3.40
2018-09-26T17:38:55.912Z,8.23
2018-09-26T17:41:25.457Z,3.00
2018-09-26T17:43:54.649Z,4.40
2018-09-26T17:46:23.847Z,6.80
2018-09-26T17:48:53.354Z,12.00
2018-09-26T17:51:22.526Z,14.53
2018-09-26T17:53:51.907Z,3.03
2018-09-26T17:56:21.099Z,4.17
2018-09-26T17:58:50.273Z,7.80
2018-09-26T18:01:19.821Z,7.20
2018-09-26T18:03:50.766Z,6.80
2018-09-26T18:06:20.725Z,30.73
2018-09-26T18:08:49.909Z,9.00
2018-09-26T18:11:19.595Z,13.23
2018-09-26T18:13:49.310Z,12.70
2018-09-26T18:16:18.591Z,12.43
2018-09-26T18:18:48.919Z,8.63
2018-09-26T18:21:18.564Z,7.87
2018-09-26T18:23:48.556Z,7.73
2018-09-26T18:26:18.050Z,9.07
2018-09-26T18:28:47.191Z,12.00
2018-09-26T18:31:17.601Z,9.00
2018-09-26T18:33:46.677Z,11.27
2018-09-26T18:36:16.533Z,16.13
2018-09-26T18:38:45.936Z,12.97
2018-09-26T18:41:15.125Z,8.40
2018-09-26T18:43:44.378Z,9.00
2018-09-26T18:46:14.637Z,6.60
2018-09-26T18:48:43.836Z,8.47
2018-09-26T18:51:13.899Z,13.03
2018-09-26T18:53:43.021Z,6.73
2018-09-26T18:56:12.144Z,6.50
2018-09-26T18:58:42.148Z,8.93
2018-09-26T19:01:11.623Z,6.73
2018-09-26T19:03:40.745Z,6.20
2018-09-26T19:06:13.254Z,8.57
2018-09-26T19:08:42.378Z,6.43
2018-09-26T19:11:11.827Z,6.50
2018-09-26T19:13:40.987Z,6.83
2018-09-26T19:16:10.141Z,8.43
2018-09-26T19:18:39.279Z,11.70
2018-09-26T19:21:08.747Z,7.20
2018-09-26T19:23:38.002Z,36.27
2018-09-26T19:26:07.710Z,8.83
2018-09-26T19:28:37.598Z,8.90
2018-09-26T19:31:07.018Z,9.97
2018-09-26T19:33:36.297Z,9.60
2018-09-26T19:36:05.453Z,8.03
2018-09-26T19:38:34.633Z,14.83
2018-09-26T19:41:03.773Z,7.17
2018-09-26T19:43:32.886Z,8.13
2018-09-26T19:46:02.365Z,6.60
2018-09-26T19:48:31.967Z,50.40
2018-09-26T19:51:01.776Z,92.07
2018-09-26T19:53:30.859Z,101.07
2018-09-26T19:56:00.747Z,56.27
2018-09-26T19:58:30.197Z,43.97
2018-09-26T20:00:59.318Z,41.80
2018-09-26T20:03:29.268Z,27.53
2018-09-26T20:05:58.406Z,23.30
2018-09-26T20:08:27.904Z,16.40
2018-09-26T20:10:57.092Z,10.13
2018-09-26T20:13:26.543Z,6.00
2018-09-26T20:15:55.686Z,7.80
2018-09-26T20:18:24.810Z,17.00
2018-09-26T20:20:54.265Z,9.13
2018-09-26T20:23:23.548Z,6.57
2018-09-26T20:25:52.573Z,7.20
2018-09-26T20:28:22.498Z,6.17
2018-09-26T20:30:51.948Z,5.93
2018-09-26T20:33:21.198Z,5.07
2018-09-26T20:35:50.663Z,6.60
2018-09-26T20:38:19.813Z,12.53
2018-09-26T20:40:48.973Z,9.17
2018-09-26T20:43:18.130Z,7.80
2018-09-26T20:45:49.855Z,11.43
2018-09-26T20:48:19.083Z,13.53
2018-09-26T20:50:48.681Z,10.27
2018-09-26T20:53:18.148Z,5.67
2018-09-26T20:55:47.646Z,6.13
2018-09-26T20:58:16.920Z,5.27
2018-09-26T21:00:46.262Z,6.10
2018-09-26T21:03:15.445Z,7.30
2018-09-26T21:05:44.725Z,5.23
2018-09-26T21:08:14.178Z,6.93
2018-09-26T21:10:43.439Z,5.50
2018-09-26T21:13:12.821Z,4.50
2018-09-26T21:15:43.122Z,5.93
2018-09-26T21:18:12.261Z,8.07
2018-09-26T21:20:41.397Z,6.10
2018-09-26T21:23:10.614Z,6.20
2018-09-26T21:25:39.789Z,10.30
2018-09-26T21:28:09.156Z,4.97
2018-09-26T21:30:38.397Z,4.60
2018-09-26T21:33:08.182Z,6.37
2018-09-26T21:35:37.303Z,6.17
2018-09-26T21:38:06.453Z,5.30
2018-09-26T21:40:35.622Z,4.83
2018-09-26T21:43:05.147Z,18.83
2018-09-26T21:45:34.323Z,5.20
2018-09-26T21:48:03.486Z,5.20
2018-09-26T21:50:34.237Z,4.87
2018-09-26T21:53:04.282Z,5.53
2018-09-26T21:55:33.418Z,6.27
2018-09-26T21:58:03.344Z,5.20
2018-09-26T22:00:32.758Z,9.00
2018-09-26T22:03:03.186Z,8.40
2018-09-26T22:05:32.352Z,5.20
2018-09-26T22:08:01.745Z,6.33
2018-09-26T22:10:30.881Z,5.10
2018-09-26T22:13:00.081Z,12.60
2018-09-26T22:15:29.265Z,6.87
2018-09-26T22:17:58.452Z,5.50
2018-09-26T22:20:27.655Z,5.20
2018-09-26T22:22:57.087Z,4.97
2018-09-26T22:25:26.237Z,4.70
2018-09-26T22:27:55.389Z,5.20
2018-09-26T22:30:24.590Z,5.80
2018-09-26T22:32:53.723Z,5.97
2018-09-26T22:35:30.969Z,6.60
2018-09-26T22:38:11.420Z,9.17
2018-09-26T22:40:41.025Z,5.47
2018-09-26T22:43:10.170Z,5.67
2018-09-26T22:45:39.553Z,11.93
2018-09-26T22:48:08.710Z,9.93
2018-09-26T22:50:38.381Z,6.33
2018-09-26T22:53:08.598Z,6.20
2018-09-26T22:55:38.380Z,5.93
2018-09-26T22:58:07.539Z,7.63
2018-09-26T23:00:36.657Z,10.20
2018-09-26T23:03:06.028Z,6.50
2018-09-26T23:05:35.222Z,11.07
2018-09-26T23:08:04.877Z,11.10
2018-09-26T23:10:34.039Z,16.03
2018-09-26T23:13:07.066Z,11.13
2018-09-26T23:15:36.430Z,5.97
2018-09-26T23:18:05.596Z,6.70
2018-09-26T23:20:34.943Z,6.90
2018-09-26T23:23:04.061Z,7.70
2018-09-26T23:25:33.245Z,6.80
2018-09-26T23:28:02.410Z,7.40
2018-09-26T23:30:31.558Z,7.40
2018-09-26T23:33:00.702Z,9.17
2018-09-26T23:35:29.878Z,9.70
2018-09-26T23:38:00.018Z,7.53
2018-09-26T23:40:29.514Z,7.00
2018-09-26T23:42:58.699Z,7.37
2018-09-26T23:45:27.871Z,15.47
2018-09-26T23:47:57.485Z,7.30
2018-09-26T23:50:26.801Z,7.73
2018-09-26T23:52:56.002Z,7.30
2018-09-26T23:55:25.490Z,7.13
2018-09-26T23:57:54.608Z,7.80
